createdAt,value
2023-11-23T00:00:10.424Z,11.45
2023-11-23T00:02:37.416Z,11.35
2023-11-23T00:05:04.573Z,11.90
2023-11-23T00:07:33.095Z,11.20
2023-11-23T00:09:59.984Z,11.18
2023-11-23T00:12:27.059Z,11.27
2023-11-23T00:14:53.950Z,10.07
2023-11-23T00:17:20.872Z,9.77
2023-11-23T00:19:48.561Z,10.85
2023-11-23T00:22:18.146Z,11.10
2023-11-23T00:24:44.985Z,10.40
2023-11-23T00:27:11.772Z,9.27
2023-11-23T00:29:38.593Z,9.02
2023-11-23T00:32:05.622Z,9.63
2023-11-23T00:34:32.417Z,11.20
2023-11-23T00:36:59.193Z,9.70
2023-11-23T00:39:26.037Z,10.15
2023-11-23T00:41:52.794Z,9.90
2023-11-23T00:44:19.543Z,10.38
2023-11-23T00:46:46.337Z,12.10
2023-11-23T00:49:13.148Z,10.88
2023-11-23T00:51:39.887Z,11.75
2023-11-23T00:54:07.163Z,11.73
2023-11-23T00:56:33.965Z,12.05
2023-11-23T00:59:00.772Z,10.13
2023-11-23T01:01:29.151Z,12.02
2023-11-23T01:03:56.679Z,10.30
2023-11-23T01:06:23.553Z,11.20
2023-11-23T01:08:50.425Z,11.40
2023-11-23T01:11:17.658Z,13.32
2023-11-23T01:13:44.864Z,12.88
2023-11-23T01:16:12.056Z,13.40
2023-11-23T01:18:39.090Z,12.70
2023-11-23T01:21:06.134Z,14.82
2023-11-23T01:23:32.972Z,13.40
2023-11-23T01:26:00.327Z,14.73
2023-11-23T01:28:27.131Z,14.68
2023-11-23T01:30:53.912Z,15.05
2023-11-23T01:33:21.042Z,15.90
2023-11-23T01:35:47.890Z,16.33
2023-11-23T01:38:14.978Z,14.65
2023-11-23T01:40:41.806Z,14.80
2023-11-23T01:43:11.121Z,13.32
2023-11-23T01:45:39.366Z,14.40
2023-11-23T01:48:07.233Z,15.00
2023-11-23T01:50:35.454Z,15.13
2023-11-23T01:53:04.660Z,13.52
2023-11-23T01:55:32.070Z,13.93
2023-11-23T01:58:03.500Z,14.85
2023-11-23T02:00:31.625Z,14.18
2023-11-23T02:03:00.438Z,14.02
2023-11-23T02:05:27.772Z,15.63
2023-11-23T02:07:54.685Z,14.63
2023-11-23T02:10:21.573Z,14.68
2023-11-23T02:12:51.010Z,13.70
2023-11-23T02:15:19.869Z,12.93
2023-11-23T02:17:47.975Z,14.95
2023-11-23T02:20:15.087Z,13.70
2023-11-23T02:22:42.042Z,12.57
2023-11-23T02:25:08.975Z,14.35
2023-11-23T02:27:39.021Z,14.23
2023-11-23T02:30:07.269Z,13.43
2023-11-23T02:32:34.623Z,13.48
2023-11-23T02:35:01.702Z,13.75
2023-11-23T02:37:28.556Z,13.70
2023-11-23T02:39:55.403Z,14.82
2023-11-23T02:42:22.285Z,13.75
2023-11-23T02:44:49.068Z,13.52
2023-11-23T02:47:15.857Z,15.15
2023-11-23T02:49:42.702Z,13.95
2023-11-23T02:52:09.559Z,13.48
2023-11-23T02:54:36.450Z,15.77
2023-11-23T02:57:03.500Z,13.05
2023-11-23T02:59:30.441Z,12.85
2023-11-23T03:01:57.292Z,14.55
2023-11-23T03:04:24.185Z,13.93
2023-11-23T03:06:50.968Z,13.55
2023-11-23T03:09:20.634Z,14.13
2023-11-23T03:11:48.010Z,15.77
2023-11-23T03:14:14.848Z,15.15
2023-11-23T03:16:42.758Z,14.68
2023-11-23T03:19:09.813Z,14.07
2023-11-23T03:21:37.033Z,14.00
2023-11-23T03:24:04.613Z,14.02
2023-11-23T03:26:31.504Z,14.88
2023-11-23T03:28:58.230Z,14.55
2023-11-23T03:31:25.097Z,15.30
2023-11-23T03:33:51.839Z,16.27
2023-11-23T03:36:18.961Z,14.18
2023-11-23T03:38:45.921Z,14.00
2023-11-23T03:41:12.858Z,15.70
2023-11-23T03:43:39.689Z,14.15
2023-11-23T03:46:06.647Z,13.95
2023-11-23T03:48:33.572Z,14.00
2023-11-23T03:51:00.566Z,13.57
2023-11-23T03:53:27.892Z,16.10
2023-11-23T03:55:54.729Z,14.25
2023-11-23T03:58:21.500Z,14.77
2023-11-23T04:00:49.358Z,14.45
2023-11-23T04:03:16.980Z,14.98
2023-11-23T04:05:44.077Z,15.90
2023-11-23T04:08:10.905Z,14.38
2023-11-23T04:10:37.627Z,14.38
2023-11-23T04:13:04.515Z,15.50
2023-11-23T04:15:31.550Z,16.35
2023-11-23T04:17:58.483Z,15.55
2023-11-23T04:20:25.627Z,15.90
2023-11-23T04:22:52.447Z,15.80
2023-11-23T04:25:19.321Z,16.25
2023-11-23T04:27:46.088Z,17.10
2023-11-23T04:30:13.192Z,15.73
2023-11-23T04:32:40.042Z,14.88
2023-11-23T04:35:08.048Z,16.48
2023-11-23T04:37:35.208Z,15.10
2023-11-23T04:40:07.411Z,15.70
2023-11-23T04:42:35.817Z,16.75
2023-11-23T04:45:04.296Z,17.85
2023-11-23T04:47:31.237Z,16.60
2023-11-23T04:49:58.041Z,18.08
2023-11-23T04:52:24.792Z,17.23
2023-11-23T04:54:51.606Z,17.50
2023-11-23T04:57:18.545Z,16.38
2023-11-23T04:59:45.434Z,18.42
2023-11-23T05:02:12.670Z,16.00
2023-11-23T05:04:39.501Z,16.27
2023-11-23T05:07:06.459Z,15.40
2023-11-23T05:09:33.544Z,16.35
2023-11-23T05:12:00.433Z,16.52
2023-11-23T05:14:27.254Z,15.75
2023-11-23T05:16:54.325Z,14.63
2023-11-23T05:19:31.810Z,15.75
2023-11-23T05:22:06.630Z,15.93
2023-11-23T05:24:33.568Z,16.90
2023-11-23T05:27:00.497Z,15.35
2023-11-23T05:29:27.341Z,15.55
2023-11-23T05:31:54.145Z,20.73
2023-11-23T05:34:20.978Z,25.45
2023-11-23T05:36:47.713Z,24.95
2023-11-23T05:39:15.201Z,27.45
2023-11-23T05:41:41.985Z,25.10
2023-11-23T05:44:09.452Z,20.67
2023-11-23T05:46:36.335Z,22.08
2023-11-23T05:49:03.221Z,19.38
2023-11-23T05:51:30.203Z,19.42
2023-11-23T05:53:56.998Z,18.20
2023-11-23T05:56:23.801Z,16.52
2023-11-23T05:58:50.779Z,16.95
2023-11-23T06:01:17.558Z,16.55
2023-11-23T06:03:44.631Z,15.07
2023-11-23T06:06:21.965Z,15.13
2023-11-23T06:08:49.802Z,14.48
2023-11-23T06:11:19.986Z,13.77
2023-11-23T06:13:49.828Z,14.48
2023-11-23T06:16:17.023Z,15.30
2023-11-23T06:18:44.009Z,14.43
2023-11-23T06:21:10.952Z,13.32
2023-11-23T06:23:37.706Z,15.60
2023-11-23T06:26:04.864Z,14.40
2023-11-23T06:28:31.664Z,14.75
2023-11-23T06:30:58.530Z,13.95
2023-11-23T06:33:25.546Z,12.73
2023-11-23T06:35:52.362Z,15.60
2023-11-23T06:38:19.217Z,13.57
2023-11-23T06:40:47.729Z,14.35
2023-11-23T06:43:14.496Z,12.55
2023-11-23T06:45:41.280Z,13.68
2023-11-23T06:48:08.204Z,13.10
2023-11-23T06:50:35.015Z,13.57
2023-11-23T06:53:01.801Z,13.63
2023-11-23T06:55:28.766Z,14.90
2023-11-23T06:57:55.591Z,12.88
2023-11-23T07:00:26.681Z,14.13
2023-11-23T07:02:57.251Z,13.25
2023-11-23T07:05:25.529Z,14.10
2023-11-23T07:07:53.705Z,12.52
2023-11-23T07:10:22.845Z,14.15
2023-11-23T07:12:50.707Z,14.23
2023-11-23T07:15:19.319Z,13.38
2023-11-23T07:17:49.105Z,13.55
2023-11-23T07:20:16.295Z,13.02
2023-11-23T07:22:43.278Z,14.88
2023-11-23T07:25:10.874Z,13.43
2023-11-23T07:27:38.686Z,13.10
2023-11-23T07:30:07.769Z,14.23
2023-11-23T07:32:35.754Z,13.88
2023-11-23T07:35:03.994Z,14.55
2023-11-23T07:37:31.446Z,15.02
2023-11-23T07:39:58.312Z,14.27
2023-11-23T07:42:26.589Z,15.38
2023-11-23T07:44:53.898Z,16.50
2023-11-23T07:47:21.183Z,16.20
2023-11-23T07:49:48.069Z,16.45
2023-11-23T07:52:15.520Z,16.15
2023-11-23T07:54:42.327Z,15.52
2023-11-23T07:57:09.085Z,15.57
2023-11-23T07:59:37.833Z,15.25
2023-11-23T08:02:06.178Z,14.60
2023-11-23T08:04:33.235Z,17.80
2023-11-23T08:07:00.485Z,17.38
2023-11-23T08:09:27.592Z,15.18
2023-11-23T08:11:57.212Z,15.90
2023-11-23T08:14:24.455Z,15.27
2023-11-23T08:16:51.377Z,17.65
2023-11-23T08:19:19.065Z,15.32
2023-11-23T08:21:49.136Z,15.05
2023-11-23T08:24:18.477Z,15.35
2023-11-23T08:26:45.702Z,17.70
2023-11-23T08:29:12.902Z,14.32
2023-11-23T08:31:41.125Z,15.88
2023-11-23T08:34:09.281Z,13.93
2023-11-23T08:36:37.177Z,14.85
2023-11-23T08:39:06.311Z,16.17
2023-11-23T08:41:33.381Z,10.15
2023-11-23T08:44:01.041Z,8.55
2023-11-23T08:46:28.577Z,7.70
2023-11-23T08:48:55.677Z,7.60
2023-11-23T08:51:23.661Z,7.38
2023-11-23T08:53:51.015Z,6.05
2023-11-23T08:56:17.938Z,5.75
2023-11-23T08:58:44.736Z,4.78
2023-11-23T09:01:11.735Z,5.18
2023-11-23T09:03:40.441Z,4.40
2023-11-23T09:06:09.417Z,3.85
2023-11-23T09:08:36.607Z,4.57
2023-11-23T09:11:03.434Z,4.07
2023-11-23T09:13:32.541Z,4.07
2023-11-23T09:15:59.883Z,4.10
2023-11-23T09:18:27.038Z,3.97
2023-11-23T09:20:54.272Z,3.63
2023-11-23T09:23:21.071Z,4.50
2023-11-23T09:25:47.909Z,3.85
2023-11-23T09:28:15.508Z,3.53
2023-11-23T09:30:42.505Z,2.78
2023-11-23T09:33:11.043Z,2.83
2023-11-23T09:35:39.479Z,3.05
2023-11-23T09:38:09.853Z,3.17
2023-11-23T09:40:37.459Z,3.17
2023-11-23T09:43:05.782Z,3.40
2023-11-23T09:45:33.289Z,3.08
2023-11-23T09:48:02.653Z,3.30
2023-11-23T09:50:34.104Z,2.60
2023-11-23T09:53:04.343Z,3.20
2023-11-23T09:55:31.991Z,2.83
2023-11-23T09:57:58.791Z,3.30
2023-11-23T10:00:26.279Z,2.93
2023-11-23T10:02:59.463Z,2.80
2023-11-23T10:05:27.476Z,3.00
2023-11-23T10:07:55.422Z,2.87
2023-11-23T10:10:22.629Z,2.50
2023-11-23T10:12:50.538Z,2.57
2023-11-23T10:15:17.746Z,2.80
2023-11-23T10:17:44.623Z,3.30
2023-11-23T10:20:16.436Z,2.67
2023-11-23T10:22:48.292Z,3.43
2023-11-23T10:25:38.471Z,3.20
2023-11-23T10:28:05.402Z,2.90
2023-11-23T10:30:32.727Z,3.30
2023-11-23T10:33:01.096Z,3.13
2023-11-23T10:35:41.466Z,3.43
2023-11-23T10:38:09.469Z,4.17
2023-11-23T10:40:36.525Z,3.37
2023-11-23T10:43:04.335Z,4.00
2023-11-23T10:45:37.026Z,3.70
2023-11-23T10:48:05.127Z,4.07
2023-11-23T10:50:34.233Z,3.50
2023-11-23T10:53:03.458Z,3.47
2023-11-23T10:55:30.309Z,3.53
2023-11-23T10:58:11.508Z,3.20
2023-11-23T11:00:40.656Z,3.10
2023-11-23T11:03:13.061Z,4.00
2023-11-23T11:05:47.692Z,3.70
2023-11-23T11:08:19.607Z,3.33
2023-11-23T11:10:49.467Z,2.97
2023-11-23T11:13:18.163Z,2.63
2023-11-23T11:15:58.245Z,3.00
2023-11-23T11:18:26.719Z,3.50
2023-11-23T11:21:10.060Z,2.40
2023-11-23T11:23:37.834Z,2.60
2023-11-23T11:26:18.426Z,2.10
2023-11-23T11:28:55.780Z,2.13
2023-11-23T11:31:37.406Z,1.73
2023-11-23T11:34:20.764Z,2.10
2023-11-23T11:37:03.561Z,1.87
2023-11-23T11:39:37.737Z,1.93
2023-11-23T11:42:05.952Z,2.60
2023-11-23T11:44:37.227Z,2.70
2023-11-23T11:47:09.837Z,2.30
2023-11-23T11:49:38.183Z,2.57
2023-11-23T11:52:08.348Z,2.50
2023-11-23T11:54:36.605Z,2.30
2023-11-23T11:57:03.647Z,2.73
2023-11-23T11:59:32.141Z,2.87
2023-11-23T12:01:59.054Z,5.90
2023-11-23T12:04:26.293Z,3.00
2023-11-23T12:06:54.250Z,2.90
2023-11-23T12:09:34.058Z,2.67
2023-11-23T12:12:09.777Z,2.40
2023-11-23T12:14:39.621Z,2.10
2023-11-23T12:17:14.330Z,2.43
2023-11-23T12:19:55.498Z,2.33
2023-11-23T12:22:27.831Z,2.10
2023-11-23T12:24:56.927Z,2.17
2023-11-23T12:27:26.319Z,2.27
2023-11-23T12:29:53.632Z,2.17
2023-11-23T12:32:20.524Z,1.90
2023-11-23T12:34:47.319Z,1.90
2023-11-23T12:37:14.507Z,1.80
2023-11-23T12:39:41.367Z,2.43
2023-11-23T12:42:08.153Z,2.17
2023-11-23T12:44:36.552Z,2.20
2023-11-23T12:47:04.187Z,2.40
2023-11-23T12:49:31.172Z,2.00
2023-11-23T12:51:58.452Z,2.97
2023-11-23T12:54:26.187Z,2.20
2023-11-23T12:56:53.410Z,2.23
2023-11-23T12:59:20.224Z,2.40
2023-11-23T13:01:47.085Z,2.33
2023-11-23T13:04:14.218Z,2.30
2023-11-23T13:06:41.306Z,2.50
2023-11-23T13:09:25.450Z,2.00
2023-11-23T13:11:53.484Z,2.10
2023-11-23T13:14:21.619Z,2.90
2023-11-23T13:16:48.379Z,2.30
2023-11-23T13:19:26.264Z,2.50
2023-11-23T13:22:02.263Z,1.97
2023-11-23T13:24:30.487Z,2.20
2023-11-23T13:26:57.552Z,1.70
2023-11-23T13:29:25.650Z,2.13
2023-11-23T13:31:52.730Z,2.10
2023-11-23T13:34:20.447Z,1.80
2023-11-23T13:36:52.368Z,1.47
2023-11-23T13:39:20.707Z,1.40
2023-11-23T13:41:49.692Z,2.70
2023-11-23T13:44:16.592Z,1.90
2023-11-23T13:46:43.666Z,1.70
2023-11-23T13:49:11.945Z,2.20
2023-11-23T13:51:39.010Z,3.20
2023-11-23T13:54:06.499Z,2.47
2023-11-23T13:56:34.301Z,1.80
2023-11-23T13:59:02.172Z,2.30
2023-11-23T14:01:29.598Z,2.47
2023-11-23T14:03:56.722Z,2.07
2023-11-23T14:06:23.610Z,1.87
2023-11-23T14:08:50.446Z,2.03
2023-11-23T14:11:19.519Z,2.70
2023-11-23T14:13:46.361Z,2.30
2023-11-23T14:16:13.252Z,2.30
2023-11-23T14:18:42.579Z,1.80
2023-11-23T14:21:11.492Z,1.97
2023-11-23T14:23:40.296Z,1.70
2023-11-23T14:26:09.337Z,1.90
2023-11-23T14:28:36.414Z,2.03
2023-11-23T14:31:03.810Z,2.47
2023-11-23T14:33:30.921Z,2.07
2023-11-23T14:35:58.181Z,2.40
2023-11-23T14:38:26.598Z,2.50
2023-11-23T14:40:54.438Z,2.13
2023-11-23T14:43:22.900Z,2.63
2023-11-23T14:45:50.751Z,2.40
2023-11-23T14:48:17.867Z,1.97
2023-11-23T14:50:46.186Z,2.47
2023-11-23T14:53:14.818Z,2.10
2023-11-23T14:55:41.869Z,2.30
2023-11-23T14:58:10.125Z,2.13
2023-11-23T15:00:39.938Z,2.40
2023-11-23T15:03:07.524Z,2.70
2023-11-23T15:05:34.567Z,2.87
2023-11-23T15:08:01.351Z,2.50
2023-11-23T15:10:28.156Z,2.13
2023-11-23T15:12:55.182Z,2.10
2023-11-23T15:15:22.821Z,2.20
2023-11-23T15:17:51.115Z,1.80
2023-11-23T15:20:20.149Z,1.70
2023-11-23T15:22:47.810Z,1.93
2023-11-23T15:25:14.691Z,2.23
2023-11-23T15:27:43.593Z,1.93
2023-11-23T15:30:12.494Z,2.53
2023-11-23T15:32:40.870Z,2.70
2023-11-23T15:35:08.640Z,2.13
2023-11-23T15:37:35.865Z,2.10
2023-11-23T15:40:02.734Z,2.10
2023-11-23T15:42:29.531Z,2.10
2023-11-23T15:44:56.369Z,1.70
2023-11-23T15:47:24.297Z,2.20
2023-11-23T15:49:51.616Z,1.40
2023-11-23T15:52:18.430Z,1.80
2023-11-23T15:54:45.260Z,1.70
2023-11-23T15:57:12.193Z,1.70
2023-11-23T15:59:39.250Z,1.73
2023-11-23T16:02:07.105Z,1.60
2023-11-23T16:04:34.106Z,1.70
2023-11-23T16:07:03.716Z,1.53
2023-11-23T16:09:30.753Z,1.50
2023-11-23T16:11:59.049Z,1.60
2023-11-23T16:14:25.851Z,1.40
2023-11-23T16:16:52.669Z,1.47
2023-11-23T16:19:20.986Z,1.47
2023-11-23T16:21:47.947Z,1.57
2023-11-23T16:24:15.252Z,1.77
2023-11-23T16:26:44.146Z,1.50
2023-11-23T16:29:12.491Z,1.10
2023-11-23T16:31:43.414Z,1.40
2023-11-23T16:34:10.993Z,1.50
2023-11-23T16:36:40.385Z,1.97
2023-11-23T16:39:10.895Z,3.73
2023-11-23T16:41:37.715Z,4.40
2023-11-23T16:44:04.706Z,1.77
2023-11-23T16:46:32.224Z,1.50
2023-11-23T16:48:59.136Z,1.83
2023-11-23T16:51:26.634Z,1.43
2023-11-23T16:53:55.495Z,1.43
2023-11-23T16:56:22.510Z,1.63
2023-11-23T16:58:49.347Z,1.77
2023-11-23T17:01:16.377Z,1.47
2023-11-23T17:03:43.320Z,2.03
2023-11-23T17:06:10.510Z,1.70
2023-11-23T17:08:39.125Z,1.57
2023-11-23T17:11:10.019Z,1.77
2023-11-23T17:13:37.727Z,1.73
2023-11-23T17:16:04.992Z,1.90
2023-11-23T17:18:31.856Z,1.80
2023-11-23T17:20:58.955Z,1.60
2023-11-23T17:23:26.554Z,1.60
2023-11-23T17:25:53.285Z,2.73
2023-11-23T17:28:22.788Z,2.00
2023-11-23T17:30:49.759Z,1.33
2023-11-23T17:33:18.863Z,2.27
2023-11-23T17:35:46.055Z,2.17
2023-11-23T17:38:13.064Z,1.70
2023-11-23T17:40:39.993Z,1.93
2023-11-23T17:43:07.554Z,2.07
2023-11-23T17:45:35.729Z,1.30
2023-11-23T17:48:02.974Z,1.80
2023-11-23T17:50:30.873Z,1.20
2023-11-23T17:52:59.742Z,1.80
2023-11-23T17:55:28.378Z,1.30
2023-11-23T17:57:55.920Z,1.37
2023-11-23T18:00:23.098Z,2.10
2023-11-23T18:02:50.088Z,2.30
2023-11-23T18:07:45.572Z,12.77
2023-11-23T18:10:15.666Z,5.20
2023-11-23T18:12:43.417Z,1.37
2023-11-23T18:15:11.902Z,1.40
2023-11-23T18:17:39.338Z,2.97
2023-11-23T18:20:08.893Z,2.93
2023-11-23T18:22:35.768Z,2.30
2023-11-23T18:25:03.269Z,1.87
2023-11-23T18:27:30.209Z,1.70
2023-11-23T18:29:57.434Z,1.40
2023-11-23T18:32:24.341Z,2.00
2023-11-23T18:34:51.406Z,1.70
2023-11-23T18:37:18.266Z,1.40
2023-11-23T18:39:45.089Z,1.47
2023-11-23T18:42:12.765Z,1.90
2023-11-23T18:44:41.707Z,1.80
2023-11-23T18:47:08.708Z,1.20
2023-11-23T18:49:35.565Z,1.40
2023-11-23T18:52:04.037Z,1.37
2023-11-23T18:54:31.236Z,1.17
2023-11-23T18:56:58.227Z,1.17
2023-11-23T18:59:25.684Z,1.50
2023-11-23T19:01:55.529Z,1.40
2023-11-23T19:04:23.560Z,1.20
2023-11-23T19:06:53.439Z,1.80
2023-11-23T19:09:23.486Z,1.23
2023-11-23T19:11:50.717Z,1.57
2023-11-23T19:14:17.666Z,2.03
2023-11-23T19:16:44.671Z,1.73
2023-11-23T19:19:13.094Z,1.83
2023-11-23T19:21:40.621Z,1.53
2023-11-23T19:24:09.142Z,1.90
2023-11-23T19:26:36.882Z,1.70
2023-11-23T19:29:04.300Z,2.13
2023-11-23T19:31:33.564Z,1.80
2023-11-23T19:34:00.687Z,2.00
2023-11-23T19:36:28.433Z,2.10
2023-11-23T19:38:55.535Z,1.93
2023-11-23T19:41:23.745Z,1.67
2023-11-23T19:43:50.809Z,1.77
2023-11-23T19:46:18.013Z,2.10
2023-11-23T19:48:46.364Z,2.10
2023-11-23T19:51:19.153Z,2.30
2023-11-23T19:53:47.731Z,2.87
2023-11-23T19:56:14.557Z,2.40
2023-11-23T19:58:41.289Z,2.20
2023-11-23T20:01:08.346Z,2.30
2023-11-23T20:03:35.357Z,2.00
2023-11-23T20:06:03.876Z,1.90
2023-11-23T20:08:32.314Z,1.90
2023-11-23T20:10:59.566Z,2.10
2023-11-23T20:13:26.272Z,2.30
2023-11-23T20:15:53.589Z,1.70
2023-11-23T20:18:20.623Z,1.77
2023-11-23T20:20:47.385Z,1.60
2023-11-23T20:23:14.294Z,1.83
2023-11-23T20:25:41.138Z,2.10
2023-11-23T20:28:10.866Z,1.83
2023-11-23T20:30:38.094Z,1.67
2023-11-23T20:33:05.213Z,1.90
2023-11-23T20:35:32.136Z,2.13
2023-11-23T20:37:59.223Z,2.47
2023-11-23T20:40:25.989Z,1.80
2023-11-23T20:42:52.866Z,2.20
2023-11-23T20:45:19.685Z,1.87
2023-11-23T20:47:47.673Z,1.83
2023-11-23T20:50:14.933Z,2.03
2023-11-23T20:52:41.770Z,2.17
2023-11-23T20:55:10.751Z,2.07
2023-11-23T20:57:38.280Z,2.07
2023-11-23T21:00:08.785Z,1.77
2023-11-23T21:02:36.260Z,2.17
2023-11-23T21:05:04.003Z,1.47
2023-11-23T21:07:31.240Z,1.73
2023-11-23T21:09:58.234Z,1.93
2023-11-23T21:12:27.706Z,2.10
2023-11-23T21:14:54.926Z,2.10
2023-11-23T21:17:23.124Z,1.90
2023-11-23T21:19:49.953Z,2.10
2023-11-23T21:22:16.905Z,2.07
2023-11-23T21:24:45.458Z,2.10
2023-11-23T21:27:12.609Z,2.03
2023-11-23T21:29:39.688Z,2.70
2023-11-23T21:32:07.065Z,2.63
2023-11-23T21:34:34.021Z,2.30
2023-11-23T21:37:00.875Z,2.63
2023-11-23T21:39:28.359Z,2.83
2023-11-23T21:41:55.204Z,2.00
2023-11-23T21:44:21.965Z,1.87
2023-11-23T21:46:48.866Z,1.83
2023-11-23T21:49:15.992Z,2.10
2023-11-23T21:51:45.273Z,1.70
2023-11-23T21:54:12.206Z,2.20
2023-11-23T21:56:39.830Z,2.57
2023-11-23T21:59:06.602Z,2.23
2023-11-23T22:01:33.518Z,2.10
2023-11-23T22:04:00.480Z,2.50
2023-11-23T22:06:27.251Z,2.00
2023-11-23T22:08:54.059Z,2.00
2023-11-23T22:11:20.827Z,2.20
2023-11-23T22:13:47.618Z,2.10
2023-11-23T22:16:14.483Z,1.90
2023-11-23T22:18:41.624Z,2.37
2023-11-23T22:21:08.845Z,1.57
2023-11-23T22:23:36.076Z,1.50
2023-11-23T22:26:03.959Z,1.60
2023-11-23T22:28:31.058Z,1.80
2023-11-23T22:30:59.634Z,1.73
2023-11-23T22:33:27.313Z,1.80
2023-11-23T22:35:54.450Z,1.70
2023-11-23T22:38:21.506Z,1.70
2023-11-23T22:40:48.636Z,1.60
2023-11-23T22:43:15.735Z,1.60
2023-11-23T22:45:42.648Z,1.40
2023-11-23T22:48:09.503Z,1.50
2023-11-23T22:50:36.306Z,1.93
2023-11-23T22:53:03.115Z,1.90
2023-11-23T22:55:29.968Z,1.57
2023-11-23T22:57:56.902Z,1.67
2023-11-23T23:00:34.877Z,1.90
2023-11-23T23:03:01.727Z,1.90
2023-11-23T23:05:28.530Z,2.10
2023-11-23T23:07:57.736Z,2.03
2023-11-23T23:10:28.198Z,1.93
2023-11-23T23:12:56.549Z,2.10
2023-11-23T23:15:24.332Z,1.93
2023-11-23T23:17:52.912Z,1.60
2023-11-23T23:20:19.980Z,2.17
2023-11-23T23:22:46.884Z,2.07
2023-11-23T23:25:14.130Z,2.30
2023-11-23T23:27:41.460Z,2.20
2023-11-23T23:30:10.174Z,1.70
2023-11-23T23:32:41.578Z,1.90
2023-11-23T23:35:11.042Z,1.80
2023-11-23T23:37:41.012Z,1.53
2023-11-23T23:40:10.410Z,1.97
2023-11-23T23:42:37.799Z,1.70
2023-11-23T23:45:05.528Z,1.60
2023-11-23T23:47:32.311Z,2.37
2023-11-23T23:49:59.097Z,2.20
2023-11-23T23:52:25.899Z,2.00
2023-11-23T23:54:52.803Z,1.60
2023-11-23T23:57:19.697Z,2.10
2023-11-23T23:59:49.446Z,1.80
